Time;durP1;ratioP1;P1;durP2;ratioP2;P2;SDS_P1;SDS_P2;PMS_P1;PMS_P2;Temp;Humidity;BMP_temperature;BMP_pressure;BME280_temperature;BME280_humidity;BME280_pressure;Samples;Min_cycle;Max_cycle;Signal;HPM_P1;HPM_P2
2021/05/13 00:00:29;;;;;;;16.07;6.30;;;;;;;11.55;82.42;100132.00;5034851;28;20175;-71
2021/05/13 00:02:54;;;;;;;9.90;5.97;;;;;;;11.62;82.63;100137.78;5036976;28;20172;-73
2021/05/13 00:05:20;;;;;;;8.43;5.80;;;;;;;11.62;82.28;100141.31;5036451;28;20587;-72
2021/05/13 00:07:45;;;;;;;10.70;6.30;;;;;;;11.62;82.22;100135.97;5018302;28;20184;-71
2021/05/13 00:10:15;;;;;;;11.03;6.23;;;;;;;11.68;82.11;100137.34;5036000;28;20630;-71
2021/05/13 00:12:48;;;;;;;13.03;6.40;;;;;;;11.67;82.13;100141.84;5035149;28;20164;-73
2021/05/13 00:15:20;;;;;;;9.60;5.60;;;;;;;11.65;82.73;100143.78;5020304;28;20184;-73
2021/05/13 00:17:45;;;;;;;10.27;5.60;;;;;;;11.70;82.51;100159.50;5035456;28;20177;-71
2021/05/13 00:20:14;;;;;;;14.07;6.27;;;;;;;11.71;82.30;100159.38;5036056;28;20219;-72
2021/05/13 00:22:39;;;;;;;9.57;5.63;;;;;;;11.62;83.04;100153.81;5035986;28;20648;-72
2021/05/13 00:25:06;;;;;;;9.17;5.53;;;;;;;11.54;83.21;100155.19;5035271;28;20172;-73
2021/05/13 00:27:31;;;;;;;11.00;6.37;;;;;;;11.45;84.13;100153.13;5034932;28;20217;-73
2021/05/13 00:29:57;;;;;;;9.40;5.90;;;;;;;11.53;83.81;100149.97;5034373;28;20291;-73
2021/05/13 00:32:22;;;;;;;15.27;5.87;;;;;;;11.52;83.40;100149.09;5034121;28;20191;-72
2021/05/13 00:34:47;;;;;;;8.13;5.47;;;;;;;11.53;83.56;100145.47;5035337;28;20203;-72
2021/05/13 00:37:12;;;;;;;11.07;6.53;;;;;;;11.52;83.27;100149.09;5034289;28;20227;-72
2021/05/13 00:39:38;;;;;;;13.53;6.37;;;;;;;11.49;83.46;100143.94;5033475;28;20700;-71
2021/05/13 00:42:03;;;;;;;10.83;6.50;;;;;;;11.56;82.79;100144.41;5035307;28;20632;-71
2021/05/13 00:44:29;;;;;;;12.90;7.50;;;;;;;11.43;83.38;100141.69;5035023;28;20168;-72
2021/05/13 00:46:54;;;;;;;14.70;6.97;;;;;;;11.48;83.29;100146.72;5035624;28;20176;-71
2021/05/13 00:49:21;;;;;;;13.73;7.13;;;;;;;11.38;83.99;100148.28;5035331;28;20656;-71
2021/05/13 00:51:46;;;;;;;14.10;6.53;;;;;;;11.27;84.36;100157.03;5034996;28;20223;-71
2021/05/13 00:54:12;;;;;;;12.20;6.80;;;;;;;11.33;84.67;100151.28;5033374;28;20196;-71
2021/05/13 00:56:37;;;;;;;16.33;7.43;;;;;;;10.97;86.78;100143.88;5033548;28;20255;-72
2021/05/13 00:59:07;;;;;;;14.83;7.33;;;;;;;10.96;86.82;100145.69;5034615;28;20231;-72
2021/05/13 01:01:48;;;;;;;11.40;7.80;;;;;;;10.83;87.66;100147.47;5033459;28;20172;-72
2021/05/13 01:04:19;;;;;;;15.20;8.23;;;;;;;10.92;87.35;100146.00;5034158;28;20631;-73
2021/05/13 01:06:45;;;;;;;16.77;8.67;;;;;;;10.79;88.25;100137.94;5016881;28;20179;-72
2021/05/13 01:09:11;;;;;;;12.53;8.23;;;;;;;10.86;87.94;100139.25;5016546;28;20207;-72
2021/05/13 01:11:42;;;;;;;12.03;8.00;;;;;;;10.85;87.77;100126.00;5017285;28;20176;-73
2021/05/13 01:14:22;;;;;;;19.03;8.33;;;;;;;10.64;89.37;100118.41;5033629;28;20199;-72
2021/05/13 01:19:32;;;;;;;14.60;8.03;;;;;;;10.90;88.92;100115.88;5033556;28;20192;-72
2021/05/13 01:21:58;;;;;;;14.90;8.73;;;;;;;10.91;88.59;100114.91;5034628;28;20186;-72
2021/05/13 01:24:23;;;;;;;19.67;9.03;;;;;;;10.90;88.17;100111.38;5033686;28;20165;-72
2021/05/13 01:26:49;;;;;;;15.67;8.37;;;;;;;10.95;87.97;100109.28;5016851;28;20284;-72
2021/05/13 01:29:17;;;;;;;14.13;7.97;;;;;;;10.91;88.10;100120.25;5033151;28;20556;-72
2021/05/13 01:31:42;;;;;;;11.93;8.77;;;;;;;10.84;88.87;100125.16;5033040;28;20174;-72
2021/05/13 01:34:08;;;;;;;14.47;7.77;;;;;;;10.93;87.01;100127.22;5033116;28;20274;-72
2021/05/13 01:36:34;;;;;;;18.07;7.97;;;;;;;10.94;87.21;100126.25;5033131;28;20177;-71
2021/05/13 01:39:00;;;;;;;12.07;7.90;;;;;;;10.89;87.14;100122.16;5032519;28;20596;-72
2021/05/13 01:41:26;;;;;;;16.73;8.30;;;;;;;10.93;86.57;100124.53;5032799;28;20177;-72
2021/05/13 01:43:51;;;;;;;17.23;8.40;;;;;;;10.94;86.31;100125.41;5034432;28;20196;-71
2021/05/13 01:46:16;;;;;;;17.27;8.13;;;;;;;10.99;86.19;100133.09;5032786;28;20192;-72
2021/05/13 01:48:42;;;;;;;15.13;7.97;;;;;;;10.96;86.06;100143.03;5033162;28;20192;-71
2021/05/13 01:51:08;;;;;;;16.03;8.33;;;;;;;10.97;85.91;100130.53;5032911;28;20164;-72
2021/05/13 01:53:33;;;;;;;19.83;9.20;;;;;;;10.97;85.72;100127.84;5032633;28;20571;-72
2021/05/13 01:55:58;;;;;;;15.23;8.57;;;;;;;11.05;85.83;100132.69;5032461;28;20187;-72
2021/05/13 01:58:24;;;;;;;15.70;8.67;;;;;;;11.07;85.53;100133.44;5034342;28;20237;-71
2021/05/13 02:00:49;;;;;;;20.83;10.07;;;;;;;11.09;85.32;100134.19;5032563;28;20172;-71
2021/05/13 02:03:15;;;;;;;15.83;8.23;;;;;;;11.05;85.81;100132.69;5015907;28;20183;-71
2021/05/13 02:05:41;;;;;;;16.20;10.33;;;;;;;11.05;85.75;100132.69;5032318;28;20179;-72
2021/05/13 02:08:06;;;;;;;19.80;9.80;;;;;;;11.04;85.70;100126.50;5032118;28;20267;-72
2021/05/13 02:10:32;;;;;;;20.30;9.80;;;;;;;11.05;85.94;100130.03;5015673;28;20175;-72
2021/05/13 02:12:57;;;;;;;19.10;9.27;;;;;;;11.07;85.22;100128.09;5032317;28;20172;-72
2021/05/13 02:15:23;;;;;;;17.83;10.53;;;;;;;11.03;85.17;100127.44;5033314;28;20227;-72
2021/05/13 02:17:48;;;;;;;22.33;11.40;;;;;;;11.03;85.63;100121.25;5034174;28;20179;-73
2021/05/13 02:20:16;;;;;;;19.63;10.27;;;;;;;11.03;86.13;100118.59;5033714;28;20246;-72
2021/05/13 02:22:42;;;;;;;20.00;10.53;;;;;;;11.02;85.92;100120.41;5032207;28;20177;-72
2021/05/13 02:25:09;;;;;;;21.00;10.93;;;;;;;10.90;87.18;100110.53;5032515;28;20176;-73
2021/05/13 02:27:35;;;;;;;22.80;11.60;;;;;;;10.74;88.35;100107.13;5033720;28;20172;-72
2021/05/13 02:30:01;;;;;;;21.83;12.97;;;;;;;10.61;88.23;100088.41;5032260;28;20779;-72
2021/05/13 02:32:26;;;;;;;26.23;12.93;;;;;;;10.65;89.12;100066.75;5032614;28;20740;-72
2021/05/13 02:34:52;;;;;;;23.10;14.90;;;;;;;10.45;89.96;100039.66;5017497;28;20219;-72
2021/05/13 02:37:19;;;;;;;25.67;15.43;;;;;;;10.49;90.13;100020.69;5035780;28;20217;-72
2021/05/13 02:39:48;;;;;;;28.90;16.20;;;;;;;10.79;88.37;100030.31;5035198;28;20200;-71
2021/05/13 02:42:13;;;;;;;27.07;15.50;;;;;;;10.68;88.60;100036.34;5034158;28;20168;-72
2021/05/13 02:44:38;;;;;;;30.87;16.00;;;;;;;10.59;89.49;100028.94;5033301;28;20632;-71
2021/05/13 02:47:04;;;;;;;33.70;17.20;;;;;;;10.50;90.55;100024.22;5015262;28;20180;-72
2021/05/13 02:49:29;;;;;;;35.47;17.87;;;;;;;10.35;91.65;100028.72;5031745;28;20782;-72
2021/05/13 02:51:55;;;;;;;27.37;16.60;;;;;;;10.43;91.22;100031.78;5033152;28;20172;-72
2021/05/13 02:54:21;;;;;;;32.53;17.70;;;;;;;10.46;90.97;100036.91;5033288;28;20203;-72
2021/05/13 02:56:46;;;;;;;30.57;16.97;;;;;;;10.49;91.68;100033.19;5031933;28;20585;-71
2021/05/13 02:59:13;;;;;;;32.20;18.33;;;;;;;10.45;91.62;100026.34;5014965;28;20218;-72
2021/05/13 03:01:38;;;;;;;29.53;18.63;;;;;;;10.34;92.74;100019.84;5031496;28;20213;-71
2021/05/13 03:04:03;;;;;;;31.43;18.83;;;;;;;10.37;93.00;100013.47;5031629;28;20567;-72
2021/05/13 03:06:29;;;;;;;34.50;20.23;;;;;;;10.18;93.65;100008.44;5031539;28;20172;-72
2021/05/13 03:08:56;;;;;;;32.03;17.97;;;;;;;10.20;94.06;100011.91;5032935;28;20199;-72
2021/05/13 03:11:22;;;;;;;31.90;20.70;;;;;;;10.13;95.25;99999.88;5015336;28;20210;-72
2021/05/13 03:13:50;;;;;;;34.07;20.37;;;;;;;10.12;96.30;100005.31;5031294;28;20214;-72
2021/05/13 03:16:16;;;;;;;29.17;18.97;;;;;;;10.17;96.51;99996.06;5032931;28;20176;-71
2021/05/13 03:18:45;;;;;;;31.27;18.57;;;;;;;10.25;95.88;99985.78;5032944;28;20197;-71
2021/05/13 03:21:15;;;;;;;28.10;17.50;;;;;;;10.36;95.89;99981.56;5033009;28;20184;-72
2021/05/13 03:26:37;;;;;;;21.93;15.90;;;;;;;10.49;94.86;99982.50;5035154;28;20163;-71
2021/05/13 03:29:03;;;;;;;20.13;14.17;;;;;;;10.53;94.40;99979.50;5035354;28;20298;-71
2021/05/13 03:31:28;;;;;;;21.90;14.23;;;;;;;10.46;94.59;99977.34;5035165;28;20710;-70
2021/05/13 03:33:53;;;;;;;21.43;14.63;;;;;;;10.43;94.70;99985.56;5035785;28;20278;-70
2021/05/13 03:36:19;;;;;;;19.80;12.40;;;;;;;10.46;94.67;99990.69;5036073;28;20227;-71
2021/05/13 03:38:44;;;;;;;22.33;13.17;;;;;;;10.47;94.69;99982.59;5049396;22;20235;-72
2021/05/13 03:41:09;;;;;;;19.20;12.63;;;;;;;10.51;94.98;99984.09;5035429;28;20206;-72
2021/05/13 03:43:35;;;;;;;14.60;11.63;;;;;;;10.52;94.64;99995.63;5036896;28;20179;-74
2021/05/13 03:46:00;;;;;;;12.23;10.27;;;;;;;10.51;94.61;99993.91;5036932;28;20172;-73
2021/05/13 03:48:25;;;;;;;14.80;10.83;;;;;;;10.57;94.53;99993.50;5035486;28;20176;-74
2021/05/13 03:50:50;;;;;;;16.73;10.97;;;;;;;10.53;94.47;100002.66;5035285;28;20207;-74
2021/05/13 03:53:16;;;;;;;15.83;11.43;;;;;;;10.47;95.04;99997.75;5034994;28;20180;-74
2021/05/13 03:55:41;;;;;;;14.07;10.10;;;;;;;10.53;94.68;99989.31;5034655;28;20228;-74
2021/05/13 03:58:09;;;;;;;16.13;10.10;;;;;;;10.57;94.50;99982.81;5018006;28;20176;-74
2021/05/13 04:00:43;;;;;;;14.10;10.03;;;;;;;10.56;94.80;99976.63;5034488;28;20193;-74
2021/05/13 04:03:09;;;;;;;13.07;10.13;;;;;;;10.65;94.13;99967.16;5035672;28;20243;-75
2021/05/13 04:05:35;;;;;;;14.60;9.70;;;;;;;10.62;93.54;99962.03;5034528;28;20252;-74
2021/05/13 04:08:03;;;;;;;10.90;8.30;;;;;;;10.65;93.97;99960.00;5034337;28;20185;-74
2021/05/13 04:10:28;;;;;;;14.23;10.43;;;;;;;10.61;93.75;99950.50;5034202;28;20238;-73
2021/05/13 04:12:56;;;;;;;14.40;10.07;;;;;;;10.64;93.00;99942.28;5017825;28;20215;-74
2021/05/13 04:15:21;;;;;;;14.87;10.30;;;;;;;10.56;94.14;99941.94;5034401;28;20592;-74
2021/05/13 04:17:47;;;;;;;13.90;10.70;;;;;;;10.61;94.64;99939.81;5035584;28;20176;-73
2021/05/13 04:20:12;;;;;;;16.23;10.67;;;;;;;10.65;93.90;99937.81;5034623;28;20657;-74
2021/05/13 04:22:37;;;;;;;15.03;10.07;;;;;;;10.67;93.38;99933.22;5034285;28;20180;-74
2021/05/13 04:25:04;;;;;;;13.77;10.17;;;;;;;10.56;94.28;99939.28;5035832;28;20532;-74
2021/05/13 04:27:29;;;;;;;13.07;10.30;;;;;;;10.67;93.08;99933.22;5034405;28;20270;-74
2021/05/13 04:29:54;;;;;;;12.50;10.20;;;;;;;10.69;93.05;99936.63;5033997;28;20639;-74
2021/05/13 04:32:20;;;;;;;14.20;10.77;;;;;;;10.79;93.04;99943.09;5033950;28;20750;-74
2021/05/13 04:34:45;;;;;;;14.90;10.57;;;;;;;10.84;92.23;99940.94;5033907;28;20204;-74
2021/05/13 04:37:10;;;;;;;14.63;9.70;;;;;;;10.86;92.26;99936.38;5033638;28;20177;-74
2021/05/13 04:39:36;;;;;;;14.50;10.00;;;;;;;10.92;91.80;99938.59;5034697;28;20216;-74
2021/05/13 04:42:01;;;;;;;12.10;9.17;;;;;;;10.93;91.75;99932.31;5017392;28;20547;-74
2021/05/13 04:44:26;;;;;;;17.57;11.23;;;;;;;10.81;92.78;99926.97;5033806;28;20176;-74
2021/05/13 04:46:58;;;;;;;15.13;11.00;;;;;;;10.86;91.78;99925.69;5034046;28;20183;-74
2021/05/13 04:49:24;;;;;;;18.93;11.77;;;;;;;10.90;91.74;99924.50;5034961;28;20211;-74
2021/05/13 04:51:49;;;;;;;15.70;11.50;;;;;;;10.81;92.97;99932.31;5033665;28;20226;-74
2021/05/13 04:54:17;;;;;;;21.10;12.93;;;;;;;10.82;92.48;99924.19;5034576;28;20197;-74
2021/05/13 04:56:43;;;;;;;17.80;13.17;;;;;;;10.80;92.71;99933.25;5033587;28;20211;-73
2021/05/13 04:59:08;;;;;;;19.37;13.97;;;;;;;10.90;92.09;99929.84;5016846;28;20224;-74
2021/05/13 05:01:33;;;;;;;20.63;13.50;;;;;;;10.86;92.59;99919.50;5033492;28;20176;-74
2021/05/13 05:03:59;;;;;;;20.60;14.20;;;;;;;10.80;92.26;99920.78;5033436;28;20223;-74
2021/05/13 05:06:24;;;;;;;25.90;14.70;;;;;;;10.77;92.42;99926.28;5016784;28;20180;-74
2021/05/13 05:08:50;;;;;;;21.17;14.83;;;;;;;10.74;92.76;99920.31;5033989;28;20192;-74
2021/05/13 05:11:17;;;;;;;21.50;15.00;;;;;;;10.85;93.06;99912.44;5034828;28;20181;-73
2021/05/13 05:13:42;;;;;;;23.27;14.40;;;;;;;10.97;92.33;99914.25;5035302;28;20556;-74
2021/05/13 05:16:07;;;;;;;23.90;15.00;;;;;;;11.07;91.49;99911.81;5036190;28;20207;-73
2021/05/13 05:18:33;;;;;;;22.97;14.83;;;;;;;11.04;91.78;99917.34;5018672;28;20644;-74
2021/05/13 05:20:58;;;;;;;23.13;13.87;;;;;;;11.06;91.99;99920.78;5035197;28;20230;-74
2021/05/13 05:23:25;;;;;;;21.13;14.57;;;;;;;10.91;92.37;99926.22;5034800;28;20544;-74
2021/05/13 05:25:50;;;;;;;20.13;13.57;;;;;;;11.05;92.54;99930.59;5018775;28;20588;-74
2021/05/13 05:28:15;;;;;;;17.80;11.80;;;;;;;11.13;92.38;99917.56;5036587;28;20226;-73
2021/05/13 05:30:41;;;;;;;21.13;13.43;;;;;;;11.10;91.83;99923.13;5035327;28;20192;-74
2021/05/13 05:33:08;;;;;;;24.13;14.57;;;;;;;10.94;92.25;99920.66;5026325;28;20172;-73
2021/05/13 05:35:35;;;;;;;17.63;13.10;;;;;;;11.04;92.85;99917.34;5042381;28;20273;-73
2021/05/13 05:38:00;;;;;;;19.27;12.33;;;;;;;11.10;91.61;99919.59;5035190;28;20210;-73
2021/05/13 05:40:26;;;;;;;19.57;12.53;;;;;;;10.93;92.98;99921.63;5035655;28;20196;-72
2021/05/13 05:42:51;;;;;;;18.93;13.30;;;;;;;10.79;94.14;99924.41;5035689;28;20181;-74
2021/05/13 05:45:19;;;;;;;22.83;12.40;;;;;;;10.91;94.63;99918.22;5035338;28;20529;-74
2021/05/13 05:47:45;;;;;;;20.70;13.30;;;;;;;11.01;93.21;99914.91;5035484;28;20180;-74
2021/05/13 05:50:10;;;;;;;17.90;11.80;;;;;;;11.19;92.66;99913.63;5035081;28;20265;-74
2021/05/13 05:52:36;;;;;;;22.23;13.70;;;;;;;11.00;93.72;99908.69;5035641;28;20180;-74
2021/05/13 05:55:03;;;;;;;19.83;12.73;;;;;;;10.88;93.46;99909.56;5034899;28;20200;-74
2021/05/13 05:57:29;;;;;;;21.10;12.77;;;;;;;10.82;94.51;99910.84;5035218;28;20237;-74
2021/05/13 05:59:55;;;;;;;17.23;12.70;;;;;;;10.96;94.77;99913.41;5033639;28;20759;-74
2021/05/13 06:02:20;;;;;;;18.50;12.43;;;;;;;11.06;94.00;99900.25;5034880;28;20177;-73
2021/05/13 06:04:45;;;;;;;18.43;12.00;;;;;;;11.10;92.81;99906.25;5035195;28;20259;-74
2021/05/13 06:07:11;;;;;;;15.03;9.87;;;;;;;11.19;93.08;99905.63;5035748;28;20175;-74
2021/05/13 06:09:36;;;;;;;15.47;11.13;;;;;;;11.30;92.26;99891.50;5034077;28;20196;-75
2021/05/13 06:12:01;;;;;;;16.20;10.50;;;;;;;11.42;92.02;99894.16;5035939;28;20219;-75
2021/05/13 06:14:27;;;;;;;16.53;11.57;;;;;;;11.33;91.05;99893.97;5033601;28;20200;-75
2021/05/13 06:16:52;;;;;;;18.30;10.50;;;;;;;11.44;90.95;99886.88;5035395;28;20176;-75
2021/05/13 06:19:20;;;;;;;15.13;10.33;;;;;;;11.17;92.40;99892.38;5035761;28;20200;-75
2021/05/13 06:21:45;;;;;;;17.80;11.33;;;;;;;11.19;93.10;99893.13;5035238;28;20168;-74
2021/05/13 06:24:11;;;;;;;16.23;10.60;;;;;;;11.32;92.21;99885.09;5034868;28;20179;-74
2021/05/13 06:26:37;;;;;;;15.53;10.97;;;;;;;11.41;91.16;99889.78;5032920;28;20169;-74
2021/05/13 06:29:03;;;;;;;19.57;12.40;;;;;;;11.39;91.43;99885.50;5034825;28;20203;-76
2021/05/13 06:31:29;;;;;;;20.87;11.60;;;;;;;11.19;92.71;99892.28;5034541;28;20164;-74
2021/05/13 06:33:55;;;;;;;19.90;11.40;;;;;;;11.44;91.78;99883.34;5033766;28;20188;-74
2021/05/13 06:36:20;;;;;;;17.13;10.17;;;;;;;11.54;90.23;99885.28;5034537;28;20183;-75
2021/05/13 06:38:46;;;;;;;16.57;11.43;;;;;;;11.37;91.99;99890.97;5035708;28;20200;-75
2021/05/13 06:41:12;;;;;;;16.63;11.50;;;;;;;11.39;91.24;99891.69;5035231;28;20510;-74
2021/05/13 06:43:37;;;;;;;17.27;10.53;;;;;;;11.51;91.11;99892.63;5032794;28;20191;-72
2021/05/13 06:46:04;;;;;;;16.13;11.17;;;;;;;11.53;89.57;99880.03;5033997;28;20203;-74
2021/05/13 06:48:29;;;;;;;14.53;10.30;;;;;;;11.60;90.36;99883.97;5034091;28;20693;-74
2021/05/13 06:50:54;;;;;;;17.40;10.77;;;;;;;11.52;91.91;99881.88;5034854;28;20267;-75
2021/05/13 06:53:20;;;;;;;18.03;10.37;;;;;;;11.53;91.18;99880.91;5034035;28;20211;-75
2021/05/13 06:55:51;;;;;;;16.87;12.10;;;;;;;11.58;91.21;99876.06;5034731;28;20204;-75
2021/05/13 06:58:16;;;;;;;17.87;11.23;;;;;;;11.43;90.97;99877.16;5035173;28;20234;-75
2021/05/13 07:00:41;;;;;;;15.60;11.53;;;;;;;11.51;90.65;99873.94;5037401;28;20192;-74
2021/05/13 07:03:07;;;;;;;17.07;11.23;;;;;;;11.59;90.70;99872.44;5038421;28;20168;-74
2021/05/13 07:05:33;;;;;;;17.20;11.20;;;;;;;11.57;90.11;99871.69;5037372;28;20211;-75
2021/05/13 07:07:58;;;;;;;17.70;10.33;;;;;;;11.57;92.06;99876.19;5036629;28;20188;-73
2021/05/13 07:10:23;;;;;;;15.37;10.57;;;;;;;11.73;90.33;99871.44;5038460;28;20219;-74
2021/05/13 07:12:48;;;;;;;16.10;10.53;;;;;;;11.73;89.59;99873.25;5037588;28;20179;-75
2021/05/13 07:15:14;;;;;;;14.83;10.47;;;;;;;11.66;90.12;99875.50;5037962;28;20258;-74
2021/05/13 07:17:39;;;;;;;17.63;11.73;;;;;;;11.50;91.65;99872.22;5038647;28;20255;-75
2021/05/13 07:20:05;;;;;;;17.93;11.27;;;;;;;11.73;90.24;99871.44;5038312;28;20552;-75
2021/05/13 07:22:30;;;;;;;16.03;10.33;;;;;;;11.87;88.51;99875.78;5038865;28;20183;-75
2021/05/13 07:24:56;;;;;;;17.27;10.80;;;;;;;11.66;89.46;99866.66;5044928;28;20207;-74
2021/05/13 07:27:22;;;;;;;14.57;10.30;;;;;;;11.81;89.37;99870.91;5046180;28;20181;-74
2021/05/13 07:29:47;;;;;;;17.50;10.00;;;;;;;11.70;90.72;99874.31;5040195;28;20211;-76
2021/05/13 07:32:13;;;;;;;14.90;11.10;;;;;;;11.49;92.02;99866.03;5039293;28;20176;-76
2021/05/13 07:34:38;;;;;;;14.73;10.80;;;;;;;11.42;92.25;99864.75;5038122;28;20222;-75
2021/05/13 07:37:03;;;;;;;16.43;11.23;;;;;;;11.71;91.10;99859.13;5039253;28;20183;-74
2021/05/13 07:39:29;;;;;;;16.37;11.07;;;;;;;11.63;90.44;99858.84;5038346;28;20218;-75
2021/05/13 07:41:55;;;;;;;17.50;11.83;;;;;;;11.74;89.94;99858.91;5038429;28;20180;-76
2021/05/13 07:44:21;;;;;;;19.97;13.30;;;;;;;11.50;90.83;99865.06;5038653;28;20227;-75
2021/05/13 07:46:47;;;;;;;19.07;13.37;;;;;;;11.54;91.26;99869.25;5037127;28;20211;-76
2021/05/13 07:49:12;;;;;;;17.07;12.10;;;;;;;11.67;91.26;99869.19;5038190;28;20227;-76
2021/05/13 07:51:38;;;;;;;20.57;14.10;;;;;;;11.74;90.09;99872.28;5037869;28;20176;-76
2021/05/13 07:54:05;;;;;;;18.30;12.70;;;;;;;11.70;89.96;99873.47;5036264;28;20208;-76
2021/05/13 07:56:31;;;;;;;19.20;13.83;;;;;;;11.63;91.32;99875.75;5038391;28;20168;-75
2021/05/13 07:58:56;;;;;;;19.17;13.50;;;;;;;11.64;91.82;99880.13;5037972;28;20198;-76
2021/05/13 08:01:21;;;;;;;21.77;15.03;;;;;;;11.56;91.64;99878.00;5037615;28;20176;-75
2021/05/13 08:03:47;;;;;;;20.97;14.30;;;;;;;11.48;93.00;99880.34;5037735;28;20576;-74
2021/05/13 08:06:12;;;;;;;20.83;13.90;;;;;;;11.57;91.12;99884.22;5037353;28;20180;-75
2021/05/13 08:08:37;;;;;;;21.60;14.43;;;;;;;11.63;91.10;99878.41;5037311;28;20226;-74
2021/05/13 08:11:03;;;;;;;25.83;16.80;;;;;;;11.50;91.67;99882.91;5037093;28;20184;-76
2021/05/13 08:13:30;;;;;;;25.63;16.07;;;;;;;11.30;93.32;99879.00;5037043;28;20603;-75
2021/05/13 08:15:55;;;;;;;25.77;16.77;;;;;;;11.27;93.18;99879.22;5037992;28;20204;-74
2021/05/13 08:18:21;;;;;;;25.67;16.10;;;;;;;11.22;93.72;99881.38;5037098;28;20180;-75
2021/05/13 08:20:46;;;;;;;25.53;16.47;;;;;;;11.33;93.99;99877.94;5037519;28;20204;-75
2021/05/13 08:23:12;;;;;;;23.60;15.87;;;;;;;11.19;93.86;99878.91;5038108;28;20172;-75
2021/05/13 08:25:37;;;;;;;30.13;16.83;;;;;;;11.39;94.22;99877.50;5036708;28;20172;-74
2021/05/13 08:28:02;;;;;;;23.90;16.07;;;;;;;11.57;92.73;99882.38;5037315;28;20183;-75
2021/05/13 08:30:28;;;;;;;29.93;16.83;;;;;;;11.40;93.16;99882.72;5036862;28;20192;-75
2021/05/13 08:32:53;;;;;;;23.40;15.60;;;;;;;11.49;93.10;99886.53;5037222;28;20249;-74
2021/05/13 08:35:18;;;;;;;21.67;14.37;;;;;;;11.60;92.58;99883.97;5037194;28;20231;-75
2021/05/13 08:37:44;;;;;;;22.50;15.47;;;;;;;11.52;92.78;99883.66;5035360;28;20206;-73
2021/05/13 08:40:09;;;;;;;23.83;16.73;;;;;;;11.45;93.30;99885.06;5034903;28;20216;-75
2021/05/13 08:42:35;;;;;;;24.83;16.57;;;;;;;11.48;93.22;99888.38;5034735;28;20180;-73
2021/05/13 08:45:00;;;;;;;23.60;16.27;;;;;;;11.50;93.32;99883.75;5037122;28;20517;-75
2021/05/13 08:47:25;;;;;;;27.10;16.07;;;;;;;11.51;93.47;99885.47;5036591;28;20176;-73
2021/05/13 08:49:51;;;;;;;27.03;15.57;;;;;;;11.44;93.66;99884.22;5036635;28;20207;-75
2021/05/13 08:52:18;;;;;;;24.83;15.97;;;;;;;11.49;93.26;99882.06;5036541;28;20172;-75
2021/05/13 08:54:54;;;;;;;26.57;16.23;;;;;;;11.42;95.18;99882.63;5035489;28;20196;-75
2021/05/13 08:57:20;;;;;;;24.30;15.13;;;;;;;11.44;95.06;99878.00;5036822;28;20168;-74
2021/05/13 08:59:45;;;;;;;27.30;16.33;;;;;;;11.42;94.35;99880.78;5035375;28;20774;-75
2021/05/13 09:02:11;;;;;;;26.33;17.00;;;;;;;11.45;95.02;99877.91;5035157;28;20577;-75
2021/05/13 09:04:38;;;;;;;27.33;15.80;;;;;;;11.50;94.90;99862.38;5035189;28;20223;-76
2021/05/13 09:07:22;;;;;;;27.63;16.73;;;;;;;11.60;94.55;99859.94;5037143;28;20187;-75
2021/05/13 09:09:56;;;;;;;22.37;14.40;;;;;;;11.70;93.59;99855.63;5037278;28;20314;-74
2021/05/13 09:12:27;;;;;;;22.57;14.47;;;;;;;11.89;94.29;99857.81;5036030;28;20175;-75
2021/05/13 09:15:06;;;;;;;18.27;13.30;;;;;;;11.76;95.10;99856.97;5036814;28;20207;-75
2021/05/13 09:17:32;;;;;;;23.10;14.13;;;;;;;11.62;96.71;99846.44;5018958;28;20556;-75
2021/05/13 09:19:57;;;;;;;22.27;14.27;;;;;;;11.55;98.23;99840.72;5036939;28;20202;-74
2021/05/13 09:22:24;;;;;;;22.57;14.47;;;;;;;11.66;98.32;99842.59;5035358;28;20176;-75
2021/05/13 09:25:02;;;;;;;21.70;14.23;;;;;;;11.76;98.92;99838.28;5035666;28;20173;-75
2021/05/13 09:27:33;;;;;;;19.30;14.17;;;;;;;11.63;98.69;99835.66;5034262;28;20579;-74
2021/05/13 09:30:23;;;;;;;20.37;13.47;;;;;;;11.76;97.99;99838.28;5034643;28;20718;-75
2021/05/13 09:32:51;;;;;;;16.17;12.30;;;;;;;11.76;98.33;99838.28;5033562;28;20167;-76
2021/05/13 09:35:17;;;;;;;19.40;12.50;;;;;;;11.89;97.42;99848.00;5035066;28;20197;-75
2021/05/13 09:37:47;;;;;;;18.83;12.63;;;;;;;11.91;97.41;99845.22;5034653;28;20176;-76
2021/05/13 09:40:13;;;;;;;14.53;11.10;;;;;;;11.84;96.86;99834.09;5056776;22;20224;-71
2021/05/13 09:42:39;;;;;;;14.10;10.60;;;;;;;11.78;97.16;99841.72;5033202;28;20531;-72
2021/05/13 09:45:07;;;;;;;18.80;12.43;;;;;;;11.72;98.26;99844.81;5032520;28;20251;-72
2021/05/13 09:47:32;;;;;;;19.50;12.77;;;;;;;11.55;98.47;99846.91;5033518;28;20176;-71
2021/05/13 09:50:08;;;;;;;15.87;11.00;;;;;;;11.79;98.41;99838.06;5032542;28;20250;-71
2021/05/13 09:52:47;;;;;;;17.27;12.00;;;;;;;11.59;97.93;99832.34;5033468;28;20176;-71
2021/05/13 09:55:18;;;;;;;16.07;11.03;;;;;;;11.69;98.47;99831.66;5032572;28;20194;-71
2021/05/13 09:57:54;;;;;;;20.60;12.93;;;;;;;11.39;98.89;99821.38;5033970;28;20540;-71
2021/05/13 10:00:48;;;;;;;18.10;12.40;;;;;;;11.41;99.42;99825.66;5016189;28;20291;-72
2021/05/13 10:03:17;;;;;;;16.80;12.37;;;;;;;11.40;99.56;99815.94;5032610;28;20619;-71
2021/05/13 10:05:48;;;;;;;17.20;11.30;;;;;;;11.38;99.60;99819.69;5032625;28;20168;-71
2021/05/13 10:08:14;;;;;;;14.50;9.83;;;;;;;11.57;100.00;99828.94;5032489;28;20172;-71
2021/05/13 10:10:40;;;;;;;14.30;11.10;;;;;;;11.71;97.63;99819.03;5032579;28;20204;-71
2021/05/13 10:13:07;;;;;;;13.33;10.33;;;;;;;11.69;97.89;99821.84;5032380;28;20255;-70
2021/05/13 10:15:33;;;;;;;14.77;10.33;;;;;;;11.58;98.44;99827.97;5032012;28;20250;-71
2021/05/13 10:18:06;;;;;;;14.07;10.30;;;;;;;11.32;100.00;99823.66;5031916;28;20172;-71
2021/05/13 10:20:32;;;;;;;12.40;9.80;;;;;;;10.96;100.00;99819.09;5031909;28;20281;-70
2021/05/13 10:22:57;;;;;;;15.07;9.73;;;;;;;11.26;100.00;99824.09;5032182;28;20211;-71
2021/05/13 10:25:27;;;;;;;14.77;9.97;;;;;;;11.33;100.00;99822.69;5033500;28;20207;-71
2021/05/13 10:27:58;;;;;;;20.97;11.43;;;;;;;11.13;100.00;99826.75;5033274;28;20470;-72
2021/05/13 10:30:25;;;;;;;18.17;10.90;;;;;;;11.44;100.00;99829.91;5015280;28;20211;-70
2021/05/13 10:33:17;;;;;;;16.17;10.90;;;;;;;11.53;100.00;99819.44;5031999;28;20258;-70
2021/05/13 10:36:04;;;;;;;15.50;10.90;;;;;;;11.32;100.00;99826.31;5014960;28;20235;-70
2021/05/13 10:39:05;;;;;;;13.60;10.30;;;;;;;11.43;99.93;99815.69;5031998;28;20249;-70
2021/05/13 10:41:35;;;;;;;12.27;9.30;;;;;;;11.30;100.00;99820.25;5024651;28;20198;-69
2021/05/13 10:44:21;;;;;;;14.00;9.97;;;;;;;11.30;100.00;99817.56;5031460;28;20172;-70
2021/05/13 10:46:56;;;;;;;13.00;8.90;;;;;;;11.30;100.00;99814.91;5032157;28;20643;-71
2021/05/13 10:49:23;;;;;;;14.00;9.80;;;;;;;11.30;100.00;99806.88;5031497;28;20720;-70
2021/05/13 10:51:51;;;;;;;16.77;10.10;;;;;;;11.36;100.00;99810.91;5031544;28;20198;-71
2021/05/13 10:54:28;;;;;;;14.87;10.07;;;;;;;11.52;100.00;99808.84;5014938;28;20215;-70
2021/05/13 10:57:08;;;;;;;19.03;11.53;;;;;;;11.40;100.00;99796.38;5032678;28;20179;-71
2021/05/13 10:59:34;;;;;;;17.17;10.53;;;;;;;11.33;100.00;99800.47;5032669;28;20223;-70
2021/05/13 11:02:01;;;;;;;17.47;10.80;;;;;;;11.32;100.00;99790.75;5033165;28;20641;-71
2021/05/13 11:04:28;;;;;;;20.57;11.80;;;;;;;11.54;100.00;99794.41;5032525;28;20589;-72
2021/05/13 11:06:58;;;;;;;21.40;12.53;;;;;;;11.36;100.00;99790.41;5031977;28;20271;-71
2021/05/13 11:09:39;;;;;;;21.30;11.57;;;;;;;11.28;100.00;99788.28;5031348;28;20710;-70
2021/05/13 11:12:15;;;;;;;20.20;12.00;;;;;;;11.49;100.00;99796.56;5032764;28;20627;-71
2021/05/13 11:15:02;;;;;;;16.63;11.20;;;;;;;11.55;100.00;99804.16;5031436;28;20207;-70
2021/05/13 11:20:30;;;;;;;18.30;9.73;;;;;;;11.62;99.01;99801.88;5024419;28;20200;-70
2021/05/13 11:22:59;;;;;;;16.43;10.03;;;;;;;11.62;100.00;99798.34;5031302;28;20322;-70
2021/05/13 11:25:41;;;;;;;17.43;10.67;;;;;;;11.55;99.96;99796.13;5032123;28;20183;-70